createdAt,value
2022-08-22T00:01:53.585Z,100.00
2022-08-22T00:02:44.021Z,100.00
2022-08-22T00:03:09.129Z,100.00
2022-08-22T00:03:10.556Z,100.00
2022-08-22T00:04:33.504Z,100.00
2022-08-22T00:07:09.448Z,100.00
2022-08-22T00:09:46.499Z,100.00
2022-08-22T00:12:22.574Z,100.00
2022-08-22T00:14:58.086Z,100.00
2022-08-22T00:17:40.155Z,100.00
2022-08-22T00:20:14.246Z,100.00
2022-08-22T00:22:49.842Z,100.00
2022-08-22T00:25:45.394Z,100.00
2022-08-22T00:28:18.406Z,100.00
2022-08-22T00:30:56.963Z,100.00
2022-08-22T00:33:32.460Z,100.00
2022-08-22T00:36:10.777Z,100.00
2022-08-22T00:38:44.237Z,100.00
2022-08-22T00:41:34.989Z,100.00
2022-08-22T00:44:36.873Z,100.00
2022-08-22T00:47:21.214Z,100.00
2022-08-22T00:50:13.739Z,100.00
2022-08-22T00:52:48.267Z,100.00
2022-08-22T00:55:35.885Z,100.00
2022-08-22T00:58:26.234Z,100.00
2022-08-22T01:01:00.846Z,100.00
2022-08-22T01:04:22.291Z,100.00
2022-08-22T01:07:04.770Z,100.00
2022-08-22T01:09:44.736Z,100.00
2022-08-22T01:12:28.103Z,100.00
2022-08-22T01:15:00.506Z,100.00
2022-08-22T01:18:00.402Z,100.00
2022-08-22T01:21:01.865Z,100.00
2022-08-22T01:24:05.007Z,100.00
2022-08-22T01:27:08.685Z,100.00
2022-08-22T01:30:01.354Z,100.00
2022-08-22T01:33:12.077Z,100.00
2022-08-22T01:36:30.273Z,100.00
2022-08-22T01:39:42.686Z,100.00
2022-08-22T01:42:40.580Z,100.00
2022-08-22T01:45:43.291Z,100.00
2022-08-22T01:48:15.119Z,100.00
2022-08-22T01:50:46.720Z,100.00
2022-08-22T01:53:22.881Z,100.00
2022-08-22T01:56:02.086Z,100.00
2022-08-22T01:58:33.861Z,100.00
2022-08-22T02:01:18.891Z,100.00
2022-08-22T02:04:01.272Z,100.00
2022-08-22T02:06:34.763Z,100.00
2022-08-22T02:09:11.711Z,100.00
2022-08-22T02:11:48.949Z,100.00
2022-08-22T02:14:30.639Z,100.00
2022-08-22T02:17:08.990Z,100.00
2022-08-22T02:19:41.600Z,100.00
2022-08-22T02:22:30.540Z,100.00
2022-08-22T02:25:09.788Z,100.00
2022-08-22T02:27:48.668Z,100.00
2022-08-22T02:30:20.093Z,100.00
2022-08-22T02:33:00.176Z,100.00
2022-08-22T02:35:33.571Z,100.00
2022-08-22T02:38:15.848Z,100.00
2022-08-22T02:40:48.028Z,100.00
2022-08-22T02:43:21.539Z,100.00
2022-08-22T02:45:55.923Z,100.00
2022-08-22T02:48:36.417Z,100.00
2022-08-22T02:51:11.605Z,100.00
2022-08-22T02:53:49.454Z,100.00
2022-08-22T02:56:22.661Z,100.00
2022-08-22T02:58:59.139Z,100.00
2022-08-22T03:01:40.795Z,100.00
2022-08-22T03:04:52.095Z,100.00
2022-08-22T03:07:37.148Z,100.00
2022-08-22T03:10:15.076Z,100.00
2022-08-22T03:12:57.399Z,100.00
2022-08-22T03:15:34.204Z,100.00
2022-08-22T03:18:06.952Z,100.00
2022-08-22T03:20:48.091Z,100.00
2022-08-22T03:23:26.948Z,100.00
2022-08-22T03:26:07.528Z,100.00
2022-08-22T03:28:52.681Z,100.00
2022-08-22T03:31:29.857Z,100.00
2022-08-22T03:34:20.275Z,100.00
2022-08-22T03:36:58.981Z,100.00
2022-08-22T03:39:48.049Z,100.00
2022-08-22T03:43:00.809Z,100.00
2022-08-22T03:46:19.000Z,100.00
2022-08-22T03:49:32.984Z,100.00
2022-08-22T03:52:59.948Z,100.00
2022-08-22T03:55:39.060Z,100.00
2022-08-22T03:58:36.852Z,100.00
2022-08-22T04:01:35.056Z,100.00
2022-08-22T04:04:30.337Z,100.00
2022-08-22T04:07:45.560Z,100.00
2022-08-22T04:10:33.974Z,100.00
2022-08-22T04:13:34.858Z,100.00
2022-08-22T04:16:37.505Z,100.00
2022-08-22T04:19:12.163Z,100.00
2022-08-22T04:21:58.527Z,100.00
2022-08-22T04:24:53.147Z,100.00
2022-08-22T04:27:25.495Z,100.00
2022-08-22T04:29:58.289Z,100.00
2022-08-22T04:32:31.170Z,100.00
2022-08-22T04:35:06.940Z,100.00
2022-08-22T04:37:42.767Z,100.00
2022-08-22T04:40:18.061Z,100.00
2022-08-22T04:42:50.694Z,100.00
2022-08-22T04:45:23.399Z,100.00
2022-08-22T04:47:55.777Z,100.00
2022-08-22T04:50:30.177Z,100.00
2022-08-22T04:53:10.514Z,100.00
2022-08-22T04:55:49.853Z,100.00
2022-08-22T04:58:35.351Z,100.00
2022-08-22T05:01:16.597Z,100.00
2022-08-22T05:03:52.464Z,100.00
2022-08-22T05:06:26.458Z,100.00
2022-08-22T05:08:55.799Z,100.00
2022-08-22T05:11:25.164Z,100.00
2022-08-22T05:13:57.775Z,100.00
2022-08-22T05:16:29.159Z,100.00
2022-08-22T05:19:02.851Z,100.00
2022-08-22T05:21:36.170Z,100.00
2022-08-22T05:24:09.546Z,100.00
2022-08-22T05:26:41.126Z,100.00
2022-08-22T05:29:13.477Z,100.00
2022-08-22T05:31:47.534Z,100.00
2022-08-22T05:34:20.694Z,100.00
2022-08-22T05:36:56.736Z,100.00
2022-08-22T05:39:28.252Z,100.00
2022-08-22T05:41:58.347Z,100.00
2022-08-22T05:44:29.467Z,100.00
2022-08-22T05:47:03.069Z,100.00
2022-08-22T05:49:38.953Z,100.00
2022-08-22T05:52:17.775Z,100.00
2022-08-22T05:54:54.642Z,100.00
2022-08-22T05:57:28.854Z,100.00
2022-08-22T06:00:04.023Z,100.00
2022-08-22T06:02:55.214Z,100.00
2022-08-22T06:05:28.532Z,100.00
2022-08-22T06:08:03.306Z,100.00
2022-08-22T06:10:41.046Z,100.00
2022-08-22T06:13:13.010Z,100.00
2022-08-22T06:15:47.824Z,100.00
2022-08-22T06:18:20.843Z,100.00
2022-08-22T06:20:53.680Z,100.00
2022-08-22T06:23:26.089Z,100.00
2022-08-22T06:25:55.677Z,100.00
2022-08-22T06:28:26.203Z,100.00
2022-08-22T06:30:58.603Z,100.00
2022-08-22T06:33:29.573Z,100.00
2022-08-22T06:36:20.720Z,100.00
2022-08-22T06:39:02.422Z,100.00
2022-08-22T06:41:34.787Z,100.00
2022-08-22T06:44:05.161Z,100.00
2022-08-22T06:46:37.130Z,100.00
2022-08-22T06:49:08.289Z,100.00
2022-08-22T06:51:38.508Z,100.00
2022-08-22T06:54:15.719Z,100.00
2022-08-22T06:56:47.231Z,100.00
2022-08-22T06:59:18.482Z,100.00
2022-08-22T07:01:51.661Z,100.00
2022-08-22T07:04:26.419Z,100.00
2022-08-22T07:06:56.633Z,100.00
2022-08-22T07:09:28.783Z,100.00
2022-08-22T07:12:00.540Z,100.00
2022-08-22T07:14:32.948Z,100.00
2022-08-22T07:17:04.540Z,100.00
2022-08-22T07:19:35.023Z,100.00
2022-08-22T07:22:13.345Z,100.00
2022-08-22T07:24:48.207Z,100.00
2022-08-22T07:27:37.521Z,100.00
2022-08-22T07:30:10.161Z,100.00
2022-08-22T07:32:49.412Z,100.00
2022-08-22T07:35:20.372Z,100.00
2022-08-22T07:37:56.453Z,100.00
2022-08-22T07:40:32.948Z,100.00
2022-08-22T07:43:09.385Z,100.00
2022-08-22T07:45:44.358Z,100.00
2022-08-22T07:48:26.000Z,94.48
2022-08-22T07:51:02.647Z,88.06
2022-08-22T07:53:39.253Z,83.57
2022-08-22T07:56:13.595Z,81.73
2022-08-22T07:58:43.851Z,78.60
2022-08-22T08:01:16.715Z,75.20
2022-08-22T08:03:52.516Z,72.91
2022-08-22T08:06:23.176Z,71.40
2022-08-22T08:08:52.881Z,74.43
2022-08-22T08:11:24.346Z,73.14
2022-08-22T08:13:58.916Z,69.70
2022-08-22T08:16:29.580Z,65.21
2022-08-22T08:19:00.456Z,72.34
2022-08-22T08:21:31.674Z,83.12
2022-08-22T08:24:01.853Z,75.99
2022-08-22T08:26:35.644Z,73.15
2022-08-22T08:29:04.000Z,76.12
2022-08-22T08:31:38.075Z,70.24
2022-08-22T08:34:16.085Z,77.18
2022-08-22T08:36:52.280Z,65.25
2022-08-22T08:39:25.177Z,65.31
2022-08-22T08:42:26.621Z,61.86
2022-08-22T08:45:29.002Z,65.54
2022-08-22T08:48:27.471Z,61.92
2022-08-22T08:51:11.886Z,62.32
2022-08-22T08:54:03.594Z,64.04
2022-08-22T08:56:39.939Z,62.29
2022-08-22T08:59:30.822Z,64.35
2022-08-22T09:02:23.609Z,66.27
2022-08-22T09:05:19.629Z,63.03
2022-08-22T09:08:01.700Z,59.41
2022-08-22T09:10:53.821Z,55.02
2022-08-22T09:13:41.444Z,56.16
2022-08-22T09:16:30.475Z,57.04
2022-08-22T09:19:23.194Z,55.79
2022-08-22T09:22:14.219Z,54.88
2022-08-22T09:25:01.601Z,53.97
2022-08-22T09:27:39.139Z,52.08
2022-08-22T09:30:11.954Z,52.45
2022-08-22T09:32:49.827Z,50.57
2022-08-22T09:35:26.871Z,51.39
2022-08-22T09:38:24.215Z,56.65
2022-08-22T09:41:00.937Z,54.29
2022-08-22T09:43:48.349Z,59.87
2022-08-22T09:46:22.585Z,57.85
2022-08-22T09:49:07.109Z,53.69
2022-08-22T09:51:43.120Z,51.34
2022-08-22T09:54:18.796Z,50.79
2022-08-22T09:57:06.364Z,46.91
2022-08-22T09:59:58.121Z,49.43
2022-08-22T10:02:34.532Z,48.97
2022-08-22T10:05:40.494Z,47.31
2022-08-22T10:08:39.478Z,50.44
2022-08-22T10:11:25.980Z,52.36
2022-08-22T10:14:01.009Z,52.09
2022-08-22T10:16:52.104Z,47.88
2022-08-22T10:19:27.829Z,48.65
2022-08-22T10:22:20.106Z,47.08
2022-08-22T10:24:58.642Z,47.51
2022-08-22T10:27:44.563Z,47.61
2022-08-22T10:30:15.605Z,42.76
2022-08-22T10:32:45.800Z,44.36
2022-08-22T10:35:27.683Z,41.64
2022-08-22T10:38:00.252Z,43.10
2022-08-22T10:40:33.362Z,43.83
2022-08-22T10:43:10.794Z,45.63
2022-08-22T10:45:43.491Z,41.68
2022-08-22T10:48:37.171Z,39.08
2022-08-22T10:51:15.029Z,36.95
2022-08-22T10:54:09.697Z,37.03
2022-08-22T10:56:43.825Z,38.13
2022-08-22T10:59:23.979Z,35.34
2022-08-22T11:02:05.644Z,34.54
2022-08-22T11:04:56.489Z,35.56
2022-08-22T11:07:48.647Z,36.04
2022-08-22T11:10:29.774Z,35.92
2022-08-22T11:13:15.377Z,38.79
2022-08-22T11:16:04.340Z,35.06
2022-08-22T11:19:02.916Z,35.45
2022-08-22T11:21:45.919Z,39.34
2022-08-22T11:24:55.265Z,37.58
2022-08-22T11:27:39.931Z,34.55
2022-08-22T11:30:18.112Z,37.87
2022-08-22T11:33:18.965Z,34.43
2022-08-22T11:35:56.054Z,33.71
2022-08-22T11:38:36.200Z,31.78
2022-08-22T11:41:09.601Z,32.89
2022-08-22T11:43:51.421Z,30.49
2022-08-22T11:46:26.034Z,33.17
2022-08-22T11:49:09.265Z,33.00
2022-08-22T11:52:07.063Z,33.07
2022-08-22T11:55:05.502Z,32.76
2022-08-22T11:57:39.386Z,31.98
2022-08-22T12:00:35.134Z,30.83
2022-08-22T12:03:35.543Z,31.37
2022-08-22T12:06:09.602Z,30.21
2022-08-22T12:09:16.119Z,30.26
2022-08-22T12:11:56.765Z,30.24
2022-08-22T12:14:34.623Z,30.58
2022-08-22T12:17:33.544Z,30.98
2022-08-22T12:20:22.025Z,29.45
2022-08-22T12:23:20.929Z,31.01
2022-08-22T12:26:03.460Z,29.84
2022-08-22T12:28:39.887Z,31.15
2022-08-22T12:31:25.550Z,31.96
2022-08-22T12:34:18.018Z,31.22
2022-08-22T12:37:16.259Z,29.79
2022-08-22T12:40:16.531Z,27.80
2022-08-22T12:42:57.266Z,26.58
2022-08-22T12:45:33.692Z,29.11
2022-08-22T12:48:19.717Z,26.17
2022-08-22T12:50:56.597Z,24.75
2022-08-22T12:54:01.147Z,26.64
2022-08-22T12:56:38.870Z,23.91
2022-08-22T12:59:25.025Z,27.20
2022-08-22T13:01:55.885Z,26.57
2022-08-22T13:04:33.173Z,25.09
2022-08-22T13:07:23.301Z,25.28
2022-08-22T13:09:54.511Z,27.63
2022-08-22T13:12:28.202Z,25.07
2022-08-22T13:15:01.417Z,26.07
2022-08-22T13:17:31.084Z,23.76
2022-08-22T13:20:09.721Z,23.37
2022-08-22T13:22:45.629Z,27.06
2022-08-22T13:25:25.809Z,25.37
2022-08-22T13:27:57.035Z,27.06
2022-08-22T13:30:31.762Z,24.80
2022-08-22T13:33:09.436Z,25.89
2022-08-22T13:35:45.571Z,27.55
2022-08-22T13:38:26.643Z,25.85
2022-08-22T13:40:56.456Z,27.60
2022-08-22T13:43:29.782Z,26.87
2022-08-22T13:46:01.909Z,23.91
2022-08-22T13:48:46.780Z,24.07
2022-08-22T13:51:23.851Z,27.57
2022-08-22T13:54:01.918Z,24.15
2022-08-22T13:56:40.206Z,24.18
2022-08-22T13:59:47.146Z,25.72
2022-08-22T14:02:15.198Z,26.43
2022-08-22T14:04:48.471Z,25.91
2022-08-22T14:07:29.664Z,25.66
2022-08-22T14:10:04.235Z,24.77
2022-08-22T14:12:50.588Z,25.32
2022-08-22T14:15:24.669Z,24.26
2022-08-22T14:17:59.651Z,25.78
2022-08-22T14:20:33.858Z,28.17
2022-08-22T14:23:05.317Z,27.14
2022-08-22T14:25:40.096Z,28.79
2022-08-22T14:28:12.041Z,27.43
2022-08-22T14:31:00.619Z,25.51
2022-08-22T14:33:34.983Z,25.57
2022-08-22T14:36:12.271Z,28.00
2022-08-22T14:38:46.301Z,26.68
2022-08-22T14:41:55.999Z,29.74
2022-08-22T14:44:23.400Z,28.47
2022-08-22T14:46:55.304Z,29.57
2022-08-22T14:49:36.076Z,27.91
2022-08-22T14:52:06.271Z,31.05
2022-08-22T14:54:34.743Z,32.21
2022-08-22T14:57:10.258Z,31.79
2022-08-22T14:59:50.016Z,31.21
2022-08-22T15:02:26.085Z,30.90
2022-08-22T15:04:56.590Z,30.69
2022-08-22T15:07:27.465Z,32.89
2022-08-22T15:09:57.441Z,29.86
2022-08-22T15:12:30.705Z,28.89
2022-08-22T15:15:01.797Z,30.18
2022-08-22T15:17:37.021Z,32.57
2022-08-22T15:20:27.962Z,33.07
2022-08-22T15:22:59.992Z,33.64
2022-08-22T15:25:32.515Z,34.30
2022-08-22T15:28:06.322Z,35.91
2022-08-22T15:30:38.405Z,37.77
2022-08-22T15:33:16.692Z,36.63
2022-08-22T15:35:47.322Z,36.34
2022-08-22T15:38:31.573Z,37.42
2022-08-22T15:41:31.539Z,36.96
2022-08-22T15:44:17.227Z,38.34
2022-08-22T15:47:03.842Z,36.62
2022-08-22T15:49:36.168Z,35.29
2022-08-22T15:52:20.795Z,36.50
2022-08-22T15:55:17.423Z,36.68
2022-08-22T15:57:53.021Z,36.54
2022-08-22T16:00:33.586Z,34.73
2022-08-22T16:03:05.805Z,34.50
2022-08-22T16:05:55.229Z,38.71
2022-08-22T16:08:29.584Z,38.59
2022-08-22T16:11:32.834Z,38.14
2022-08-22T16:14:21.424Z,38.12
2022-08-22T16:17:00.832Z,39.41
2022-08-22T16:19:30.874Z,37.36
2022-08-22T16:22:16.634Z,39.39
2022-08-22T16:25:10.444Z,40.64
2022-08-22T16:27:51.975Z,41.35
2022-08-22T16:30:33.495Z,40.75
2022-08-22T16:33:04.450Z,40.36
2022-08-22T16:36:23.754Z,41.43
2022-08-22T16:38:55.584Z,41.93
2022-08-22T16:41:35.125Z,42.40
2022-08-22T16:44:41.410Z,44.28
2022-08-22T16:47:18.286Z,43.47
2022-08-22T16:50:09.667Z,44.05
2022-08-22T16:53:06.785Z,45.10
2022-08-22T16:56:12.380Z,44.70
2022-08-22T16:59:19.567Z,45.29
2022-08-22T17:02:17.345Z,45.02
2022-08-22T17:04:57.741Z,46.56
2022-08-22T17:07:40.945Z,45.90
2022-08-22T17:10:23.061Z,45.38
2022-08-22T17:12:56.996Z,46.00
2022-08-22T17:15:34.921Z,45.02
2022-08-22T17:18:18.526Z,45.73
2022-08-22T17:20:50.730Z,46.76
2022-08-22T17:23:41.448Z,48.81
2022-08-22T17:26:27.621Z,50.08
2022-08-22T17:29:08.957Z,49.15
2022-08-22T17:31:46.429Z,51.79
2022-08-22T17:34:29.668Z,54.51
2022-08-22T17:37:09.205Z,50.86
2022-08-22T17:39:58.102Z,50.00
2022-08-22T17:42:46.784Z,54.34
2022-08-22T17:45:27.542Z,59.65
2022-08-22T17:48:05.997Z,64.85
2022-08-22T17:50:41.152Z,66.47
2022-08-22T17:53:12.909Z,64.64
2022-08-22T17:56:01.715Z,65.43
2022-08-22T17:58:43.311Z,73.06
2022-08-22T18:01:15.991Z,75.07
2022-08-22T18:03:50.949Z,77.87
2022-08-22T18:06:24.584Z,80.90
2022-08-22T18:11:50.980Z,77.31
2022-08-22T18:14:29.556Z,77.78
2022-08-22T18:17:00.748Z,81.79
2022-08-22T18:19:46.111Z,78.33
2022-08-22T18:22:23.191Z,81.21
2022-08-22T18:24:56.711Z,82.83
2022-08-22T18:27:34.490Z,84.29
2022-08-22T18:30:09.036Z,87.60
2022-08-22T18:32:43.741Z,85.21
2022-08-22T18:35:17.096Z,87.51
2022-08-22T18:38:03.364Z,86.50
2022-08-22T18:40:50.939Z,87.89
2022-08-22T18:43:24.048Z,83.62
2022-08-22T18:46:03.268Z,85.41
2022-08-22T18:48:49.559Z,87.29
2022-08-22T18:51:28.474Z,87.80
2022-08-22T18:54:15.893Z,88.51
2022-08-22T18:56:54.066Z,87.92
2022-08-22T18:59:44.743Z,89.29
2022-08-22T19:02:36.035Z,89.84
2022-08-22T19:05:24.602Z,93.67
2022-08-22T19:08:09.680Z,90.93
2022-08-22T19:10:47.758Z,96.79
2022-08-22T19:13:41.632Z,93.93
2022-08-22T19:16:38.211Z,95.91
2022-08-22T19:19:17.463Z,99.47
2022-08-22T19:22:21.789Z,100.00
2022-08-22T19:25:26.350Z,99.07
2022-08-22T19:28:23.371Z,98.80
2022-08-22T19:30:52.502Z,100.00
2022-08-22T19:33:34.550Z,100.00
2022-08-22T19:36:09.740Z,100.00
2022-08-22T19:39:01.064Z,100.00
2022-08-22T19:41:45.287Z,100.00
2022-08-22T19:44:33.271Z,100.00
2022-08-22T19:47:08.066Z,100.00
2022-08-22T19:49:39.638Z,100.00
2022-08-22T19:52:21.721Z,100.00
2022-08-22T19:55:11.135Z,100.00
2022-08-22T19:57:46.094Z,100.00
2022-08-22T20:00:18.183Z,100.00
2022-08-22T20:02:56.432Z,100.00
2022-08-22T20:05:31.979Z,100.00
2022-08-22T20:08:22.155Z,100.00
2022-08-22T20:11:10.858Z,100.00
2022-08-22T20:13:39.247Z,100.00
2022-08-22T20:16:17.126Z,100.00
2022-08-22T20:19:09.208Z,100.00
2022-08-22T20:21:45.074Z,100.00
2022-08-22T20:24:16.993Z,100.00
2022-08-22T20:27:12.204Z,100.00
2022-08-22T20:29:39.668Z,100.00
2022-08-22T20:32:07.939Z,100.00
2022-08-22T20:34:40.444Z,100.00
2022-08-22T20:37:45.335Z,100.00
2022-08-22T20:40:54.785Z,100.00
2022-08-22T20:43:11.081Z,100.00
2022-08-22T20:45:49.595Z,100.00
2022-08-22T20:48:17.598Z,100.00
2022-08-22T20:50:45.315Z,100.00
2022-08-22T20:53:23.362Z,100.00
2022-08-22T20:55:55.826Z,100.00
2022-08-22T20:58:37.562Z,100.00
2022-08-22T21:01:07.858Z,100.00
2022-08-22T21:03:42.262Z,100.00
2022-08-22T21:06:13.082Z,100.00
2022-08-22T21:08:43.599Z,100.00
2022-08-22T21:11:34.731Z,100.00
2022-08-22T21:14:18.571Z,100.00
2022-08-22T21:16:46.278Z,100.00
2022-08-22T21:19:18.963Z,100.00
2022-08-22T21:21:46.723Z,100.00
2022-08-22T21:24:16.148Z,100.00
2022-08-22T21:26:50.360Z,100.00
2022-08-22T21:29:23.453Z,100.00
2022-08-22T21:31:54.131Z,100.00
2022-08-22T21:34:31.714Z,100.00
2022-08-22T21:37:03.387Z,100.00
2022-08-22T21:39:37.272Z,100.00
2022-08-22T21:42:22.905Z,100.00
2022-08-22T21:44:56.977Z,100.00
2022-08-22T21:47:31.363Z,100.00
2022-08-22T21:50:06.707Z,100.00
2022-08-22T21:52:36.554Z,100.00
2022-08-22T21:55:17.585Z,100.00
2022-08-22T21:57:45.530Z,100.00
2022-08-22T22:00:48.674Z,100.00
2022-08-22T22:03:18.932Z,100.00
2022-08-22T22:05:47.024Z,100.00
2022-08-22T22:08:14.738Z,100.00
2022-08-22T22:10:45.517Z,100.00
2022-08-22T22:13:13.501Z,100.00
2022-08-22T22:15:44.138Z,100.00
2022-08-22T22:18:14.275Z,100.00
2022-08-22T22:20:43.092Z,100.00
2022-08-22T22:23:11.742Z,100.00
2022-08-22T22:25:42.172Z,100.00
2022-08-22T22:28:16.037Z,100.00
2022-08-22T22:30:45.496Z,100.00
2022-08-22T22:33:13.265Z,100.00
2022-08-22T22:35:41.672Z,100.00
2022-08-22T22:38:10.662Z,100.00
2022-08-22T22:40:38.444Z,100.00
2022-08-22T22:43:06.360Z,100.00
2022-08-22T22:45:35.539Z,100.00
2022-08-22T22:48:03.649Z,100.00
2022-08-22T22:50:31.705Z,100.00
2022-08-22T22:52:59.494Z,100.00
2022-08-22T22:55:27.360Z,100.00
2022-08-22T22:57:58.760Z,100.00
2022-08-22T23:00:29.188Z,100.00
2022-08-22T23:03:01.256Z,100.00
2022-08-22T23:05:29.616Z,100.00
2022-08-22T23:07:57.669Z,100.00
2022-08-22T23:10:25.885Z,100.00
2022-08-22T23:12:53.703Z,100.00
2022-08-22T23:15:21.624Z,100.00
2022-08-22T23:17:49.483Z,100.00
2022-08-22T23:20:19.016Z,100.00
2022-08-22T23:22:47.297Z,100.00
2022-08-22T23:25:15.644Z,100.00
2022-08-22T23:27:43.842Z,100.00
2022-08-22T23:30:13.164Z,100.00
2022-08-22T23:32:40.897Z,100.00
2022-08-22T23:35:09.524Z,100.00
2022-08-22T23:37:38.623Z,100.00
2022-08-22T23:40:09.338Z,100.00
2022-08-22T23:42:37.252Z,100.00
2022-08-22T23:45:05.576Z,100.00
2022-08-22T23:47:33.333Z,100.00
2022-08-22T23:50:02.959Z,100.00
2022-08-22T23:52:34.018Z,100.00
2022-08-22T23:55:03.134Z,100.00
2022-08-22T23:57:30.841Z,100.00
2022-08-22T23:59:59.051Z,100.00
